sensor_id;sensor_type;location;lat;lon;timestamp;temperature;humidity
21662;DHT22;10992;48.170;8.596;2023-03-23T00:01:22;10.20;99.90
21662;DHT22;10992;48.170;8.596;2023-03-23T00:03:51;10.10;99.90
21662;DHT22;10992;48.170;8.596;2023-03-23T00:06:19;10.20;99.90
21662;DHT22;10992;48.170;8.596;2023-03-23T00:08:51;10.10;99.90
21662;DHT22;10992;48.170;8.596;2023-03-23T00:11:24;10.20;99.90
21662;DHT22;10992;48.170;8.596;2023-03-23T00:13:52;10.10;99.90
21662;DHT22;10992;48.170;8.596;2023-03-23T00:16:25;10.10;99.90
21662;DHT22;10992;48.170;8.596;2023-03-23T00:19:04;10.00;99.90
21662;DHT22;10992;48.170;8.596;2023-03-23T00:21:33;10.00;99.90
21662;DHT22;10992;48.170;8.596;2023-03-23T00:24:14;9.90;99.90
21662;DHT22;10992;48.170;8.596;2023-03-23T00:26:45;9.90;99.90
21662;DHT22;10992;48.170;8.596;2023-03-23T00:29:16;9.90;99.90
21662;DHT22;10992;48.170;8.596;2023-03-23T00:31:43;9.80;99.90
21662;DHT22;10992;48.170;8.596;2023-03-23T00:34:18;9.80;99.90
21662;DHT22;10992;48.170;8.596;2023-03-23T00:36:47;9.80;99.90
21662;DHT22;10992;48.170;8.596;2023-03-23T00:39:13;9.80;99.90
21662;DHT22;10992;48.170;8.596;2023-03-23T00:41:45;9.90;99.90
21662;DHT22;10992;48.170;8.596;2023-03-23T00:44:13;9.90;99.90
21662;DHT22;10992;48.170;8.596;2023-03-23T00:46:49;9.80;99.90
21662;DHT22;10992;48.170;8.596;2023-03-23T00:49:18;9.90;99.90
21662;DHT22;10992;48.170;8.596;2023-03-23T00:51:44;9.90;99.90
21662;DHT22;10992;48.170;8.596;2023-03-23T00:54:11;9.90;99.90
21662;DHT22;10992;48.170;8.596;2023-03-23T00:56:38;9.90;99.90
21662;DHT22;10992;48.170;8.596;2023-03-23T00:59:07;9.80;99.90
21662;DHT22;10992;48.170;8.596;2023-03-23T01:01:33;9.90;99.90
21662;DHT22;10992;48.170;8.596;2023-03-23T01:04:00;9.90;99.90
21662;DHT22;10992;48.170;8.596;2023-03-23T01:06:35;9.90;99.90
21662;DHT22;10992;48.170;8.596;2023-03-23T01:09:12;9.90;99.90
21662;DHT22;10992;48.170;8.596;2023-03-23T01:11:46;9.90;99.90
21662;DHT22;10992;48.170;8.596;2023-03-23T01:14:15;9.90;99.90
21662;DHT22;10992;48.170;8.596;2023-03-23T01:16:41;9.90;99.90
21662;DHT22;10992;48.170;8.596;2023-03-23T01:19:07;9.90;99.90
21662;DHT22;10992;48.170;8.596;2023-03-23T01:21:34;9.90;99.90
21662;DHT22;10992;48.170;8.596;2023-03-23T01:24:00;9.90;99.90
21662;DHT22;10992;48.170;8.596;2023-03-23T01:26:27;9.90;99.90
21662;DHT22;10992;48.170;8.596;2023-03-23T01:28:54;9.90;99.90
21662;DHT22;10992;48.170;8.596;2023-03-23T01:31:23;10.00;99.90
21662;DHT22;10992;48.170;8.596;2023-03-23T01:33:51;10.00;99.90
21662;DHT22;10992;48.170;8.596;2023-03-23T01:36:20;10.10;99.90
21662;DHT22;10992;48.170;8.596;2023-03-23T01:38:48;10.10;99.90
21662;DHT22;10992;48.170;8.596;2023-03-23T01:41:15;10.20;99.90
21662;DHT22;10992;48.170;8.596;2023-03-23T01:46:34;10.20;99.90
21662;DHT22;10992;48.170;8.596;2023-03-23T01:49:06;10.20;99.90
21662;DHT22;10992;48.170;8.596;2023-03-23T01:51:38;10.20;99.90
21662;DHT22;10992;48.170;8.596;2023-03-23T01:54:08;10.20;99.90
21662;DHT22;10992;48.170;8.596;2023-03-23T01:56:43;10.20;99.90
21662;DHT22;10992;48.170;8.596;2023-03-23T01:59:12;10.10;99.90
21662;DHT22;10992;48.170;8.596;2023-03-23T02:01:43;10.10;99.90
21662;DHT22;10992;48.170;8.596;2023-03-23T02:04:14;10.00;99.90
21662;DHT22;10992;48.170;8.596;2023-03-23T02:06:43;10.00;99.90
21662;DHT22;10992;48.170;8.596;2023-03-23T02:09:18;10.00;99.90
21662;DHT22;10992;48.170;8.596;2023-03-23T02:11:46;10.00;99.90
21662;DHT22;10992;48.170;8.596;2023-03-23T02:14:14;10.00;99.90
21662;DHT22;10992;48.170;8.596;2023-03-23T02:16:50;10.00;99.90
21662;DHT22;10992;48.170;8.596;2023-03-23T02:22:41;10.00;99.90
21662;DHT22;10992;48.170;8.596;2023-03-23T02:28:16;10.00;99.90
21662;DHT22;10992;48.170;8.596;2023-03-23T02:33:55;10.20;99.90
21662;DHT22;10992;48.170;8.596;2023-03-23T02:36:33;10.20;99.90
21662;DHT22;10992;48.170;8.596;2023-03-23T02:39:09;10.30;99.90
21662;DHT22;10992;48.170;8.596;2023-03-23T02:41:42;10.30;99.90
21662;DHT22;10992;48.170;8.596;2023-03-23T02:44:10;10.40;99.90
21662;DHT22;10992;48.170;8.596;2023-03-23T02:46:37;10.40;99.90
21662;DHT22;10992;48.170;8.596;2023-03-23T02:49:06;10.50;99.90
21662;DHT22;10992;48.170;8.596;2023-03-23T02:51:34;10.50;99.90
21662;DHT22;10992;48.170;8.596;2023-03-23T02:54:03;10.50;99.90
21662;DHT22;10992;48.170;8.596;2023-03-23T02:56:31;10.50;99.90
21662;DHT22;10992;48.170;8.596;2023-03-23T02:59:00;10.50;99.90
21662;DHT22;10992;48.170;8.596;2023-03-23T03:03:57;10.50;99.90
21662;DHT22;10992;48.170;8.596;2023-03-23T03:06:40;10.30;99.90
21662;DHT22;10992;48.170;8.596;2023-03-23T03:12:12;10.20;99.90
21662;DHT22;10992;48.170;8.596;2023-03-23T03:14:51;10.10;99.90
21662;DHT22;10992;48.170;8.596;2023-03-23T03:17:24;10.00;99.90
21662;DHT22;10992;48.170;8.596;2023-03-23T03:19:54;10.00;99.90
21662;DHT22;10992;48.170;8.596;2023-03-23T03:22:23;10.00;99.90
21662;DHT22;10992;48.170;8.596;2023-03-23T03:24:57;10.10;99.90
21662;DHT22;10992;48.170;8.596;2023-03-23T03:27:25;10.10;99.90
21662;DHT22;10992;48.170;8.596;2023-03-23T03:30:06;10.20;99.90
21662;DHT22;10992;48.170;8.596;2023-03-23T03:32:50;10.20;99.90
21662;DHT22;10992;48.170;8.596;2023-03-23T03:35:22;10.20;99.90
21662;DHT22;10992;48.170;8.596;2023-03-23T03:37:49;10.30;99.90
21662;DHT22;10992;48.170;8.596;2023-03-23T03:40:20;10.30;99.90
21662;DHT22;10992;48.170;8.596;2023-03-23T03:42:46;10.40;99.90
21662;DHT22;10992;48.170;8.596;2023-03-23T03:45:16;10.30;99.90
21662;DHT22;10992;48.170;8.596;2023-03-23T03:47:42;10.40;99.90
21662;DHT22;10992;48.170;8.596;2023-03-23T03:50:08;10.40;99.90
21662;DHT22;10992;48.170;8.596;2023-03-23T03:52:35;10.40;99.90
21662;DHT22;10992;48.170;8.596;2023-03-23T03:55:02;10.40;99.90
21662;DHT22;10992;48.170;8.596;2023-03-23T03:57:31;10.40;99.90
21662;DHT22;10992;48.170;8.596;2023-03-23T04:00:16;10.20;99.90
21662;DHT22;10992;48.170;8.596;2023-03-23T04:02:47;10.10;99.90
21662;DHT22;10992;48.170;8.596;2023-03-23T04:05:20;10.10;99.90
21662;DHT22;10992;48.170;8.596;2023-03-23T04:07:48;10.00;99.90
21662;DHT22;10992;48.170;8.596;2023-03-23T04:10:20;9.90;99.90
21662;DHT22;10992;48.170;8.596;2023-03-23T04:12:53;9.90;99.90
21662;DHT22;10992;48.170;8.596;2023-03-23T04:15:49;9.90;99.90
21662;DHT22;10992;48.170;8.596;2023-03-23T04:18:17;9.90;99.90
21662;DHT22;10992;48.170;8.596;2023-03-23T04:20:46;9.90;99.90
21662;DHT22;10992;48.170;8.596;2023-03-23T04:23:18;10.00;99.90
21662;DHT22;10992;48.170;8.596;2023-03-23T04:25:47;10.10;99.90
21662;DHT22;10992;48.170;8.596;2023-03-23T04:28:14;10.10;99.90
21662;DHT22;10992;48.170;8.596;2023-03-23T04:30:55;10.10;99.90
21662;DHT22;10992;48.170;8.596;2023-03-23T04:33:23;10.10;99.90
21662;DHT22;10992;48.170;8.596;2023-03-23T04:35:53;10.10;99.90
21662;DHT22;10992;48.170;8.596;2023-03-23T04:38:30;10.20;99.90
21662;DHT22;10992;48.170;8.596;2023-03-23T04:41:03;10.20;99.90
21662;DHT22;10992;48.170;8.596;2023-03-23T04:43:49;10.20;99.90
21662;DHT22;10992;48.170;8.596;2023-03-23T04:46:30;10.20;99.90
21662;DHT22;10992;48.170;8.596;2023-03-23T04:49:01;10.20;99.90
21662;DHT22;10992;48.170;8.596;2023-03-23T04:51:35;10.20;99.90
21662;DHT22;10992;48.170;8.596;2023-03-23T04:54:15;10.20;99.90
21662;DHT22;10992;48.170;8.596;2023-03-23T04:56:45;10.20;99.90
21662;DHT22;10992;48.170;8.596;2023-03-23T04:59:14;10.10;99.90
21662;DHT22;10992;48.170;8.596;2023-03-23T05:02:06;10.20;99.90
21662;DHT22;10992;48.170;8.596;2023-03-23T05:04:32;10.20;99.90
21662;DHT22;10992;48.170;8.596;2023-03-23T05:07:11;10.20;99.90
21662;DHT22;10992;48.170;8.596;2023-03-23T05:09:46;10.20;99.90
21662;DHT22;10992;48.170;8.596;2023-03-23T05:12:13;10.20;99.90
21662;DHT22;10992;48.170;8.596;2023-03-23T05:14:51;10.20;99.90
21662;DHT22;10992;48.170;8.596;2023-03-23T05:17:20;10.20;99.90
21662;DHT22;10992;48.170;8.596;2023-03-23T05:19:52;10.20;99.90
21662;DHT22;10992;48.170;8.596;2023-03-23T05:22:33;10.30;99.90
21662;DHT22;10992;48.170;8.596;2023-03-23T05:25:00;10.40;99.90
21662;DHT22;10992;48.170;8.596;2023-03-23T05:27:33;10.40;99.90
21662;DHT22;10992;48.170;8.596;2023-03-23T05:30:05;10.40;99.90
21662;DHT22;10992;48.170;8.596;2023-03-23T05:32:33;10.40;99.90
21662;DHT22;10992;48.170;8.596;2023-03-23T05:35:13;10.40;99.90
21662;DHT22;10992;48.170;8.596;2023-03-23T05:37:39;10.40;99.90
21662;DHT22;10992;48.170;8.596;2023-03-23T05:40:08;10.40;99.90
21662;DHT22;10992;48.170;8.596;2023-03-23T05:42:40;10.30;99.90
21662;DHT22;10992;48.170;8.596;2023-03-23T05:45:14;10.30;99.90
21662;DHT22;10992;48.170;8.596;2023-03-23T05:47:43;10.50;99.90
21662;DHT22;10992;48.170;8.596;2023-03-23T05:50:14;10.60;99.90
21662;DHT22;10992;48.170;8.596;2023-03-23T05:52:40;10.60;99.90
21662;DHT22;10992;48.170;8.596;2023-03-23T05:55:10;10.60;99.90
21662;DHT22;10992;48.170;8.596;2023-03-23T05:57:38;10.60;99.90
21662;DHT22;10992;48.170;8.596;2023-03-23T06:00:08;10.60;99.90
21662;DHT22;10992;48.170;8.596;2023-03-23T06:02:48;10.60;99.90
21662;DHT22;10992;48.170;8.596;2023-03-23T06:05:25;10.50;99.90
21662;DHT22;10992;48.170;8.596;2023-03-23T06:07:54;10.50;99.90
21662;DHT22;10992;48.170;8.596;2023-03-23T06:10:20;10.40;99.90
21662;DHT22;10992;48.170;8.596;2023-03-23T06:12:59;10.30;99.90
21662;DHT22;10992;48.170;8.596;2023-03-23T06:15:34;10.40;99.90
21662;DHT22;10992;48.170;8.596;2023-03-23T06:18:02;10.50;99.90
21662;DHT22;10992;48.170;8.596;2023-03-23T06:20:41;10.50;99.90
21662;DHT22;10992;48.170;8.596;2023-03-23T06:23:35;10.50;99.90
21662;DHT22;10992;48.170;8.596;2023-03-23T06:26:07;10.60;99.90
21662;DHT22;10992;48.170;8.596;2023-03-23T06:28:37;10.60;99.90
21662;DHT22;10992;48.170;8.596;2023-03-23T06:31:05;10.60;99.90
21662;DHT22;10992;48.170;8.596;2023-03-23T06:33:35;10.60;99.90
21662;DHT22;10992;48.170;8.596;2023-03-23T06:36:24;10.60;99.90
21662;DHT22;10992;48.170;8.596;2023-03-23T06:39:11;10.60;99.90
21662;DHT22;10992;48.170;8.596;2023-03-23T06:41:50;10.60;99.90
21662;DHT22;10992;48.170;8.596;2023-03-23T06:44:16;10.60;99.90
21662;DHT22;10992;48.170;8.596;2023-03-23T06:46:42;10.60;99.90
21662;DHT22;10992;48.170;8.596;2023-03-23T06:49:18;10.60;99.90
21662;DHT22;10992;48.170;8.596;2023-03-23T06:51:53;10.60;99.90
21662;DHT22;10992;48.170;8.596;2023-03-23T06:54:19;10.60;99.90
21662;DHT22;10992;48.170;8.596;2023-03-23T06:56:45;10.60;99.90
21662;DHT22;10992;48.170;8.596;2023-03-23T06:59:11;10.60;99.90
21662;DHT22;10992;48.170;8.596;2023-03-23T07:01:39;10.60;99.90
21662;DHT22;10992;48.170;8.596;2023-03-23T07:04:05;10.60;99.90
21662;DHT22;10992;48.170;8.596;2023-03-23T07:06:50;10.60;99.90
21662;DHT22;10992;48.170;8.596;2023-03-23T07:09:16;10.70;99.90
21662;DHT22;10992;48.170;8.596;2023-03-23T07:11:42;10.80;99.90
21662;DHT22;10992;48.170;8.596;2023-03-23T07:14:19;10.90;99.90
21662;DHT22;10992;48.170;8.596;2023-03-23T07:16:45;11.00;99.90
21662;DHT22;10992;48.170;8.596;2023-03-23T07:19:12;11.00;99.90
21662;DHT22;10992;48.170;8.596;2023-03-23T07:21:39;11.10;99.90
21662;DHT22;10992;48.170;8.596;2023-03-23T07:24:05;11.20;99.90
21662;DHT22;10992;48.170;8.596;2023-03-23T07:26:52;11.20;99.90
21662;DHT22;10992;48.170;8.596;2023-03-23T07:29:18;11.30;99.90
21662;DHT22;10992;48.170;8.596;2023-03-23T07:31:47;11.30;99.90
21662;DHT22;10992;48.170;8.596;2023-03-23T07:34:14;11.30;99.90
21662;DHT22;10992;48.170;8.596;2023-03-23T07:36:49;11.40;99.90
21662;DHT22;10992;48.170;8.596;2023-03-23T07:39:15;11.50;99.90
21662;DHT22;10992;48.170;8.596;2023-03-23T07:41:42;11.60;99.90
21662;DHT22;10992;48.170;8.596;2023-03-23T07:44:18;11.70;99.90
21662;DHT22;10992;48.170;8.596;2023-03-23T07:46:44;11.90;99.90
21662;DHT22;10992;48.170;8.596;2023-03-23T07:49:13;12.10;99.90
21662;DHT22;10992;48.170;8.596;2023-03-23T07:51:49;12.30;99.90
21662;DHT22;10992;48.170;8.596;2023-03-23T07:54:16;12.50;99.90
21662;DHT22;10992;48.170;8.596;2023-03-23T07:57:02;12.70;99.90
21662;DHT22;10992;48.170;8.596;2023-03-23T07:59:35;13.10;99.90
21662;DHT22;10992;48.170;8.596;2023-03-23T08:02:02;13.50;99.90
21662;DHT22;10992;48.170;8.596;2023-03-23T08:05:01;13.60;99.90
21662;DHT22;10992;48.170;8.596;2023-03-23T08:07:44;13.70;99.90
21662;DHT22;10992;48.170;8.596;2023-03-23T08:10:23;13.60;99.90
21662;DHT22;10992;48.170;8.596;2023-03-23T08:13:21;13.60;99.90
21662;DHT22;10992;48.170;8.596;2023-03-23T08:16:19;13.60;99.90
21662;DHT22;10992;48.170;8.596;2023-03-23T08:19:07;13.70;99.90
21662;DHT22;10992;48.170;8.596;2023-03-23T08:21:46;13.90;99.90
21662;DHT22;10992;48.170;8.596;2023-03-23T08:24:22;14.00;99.90
21662;DHT22;10992;48.170;8.596;2023-03-23T08:26:56;13.90;99.90
21662;DHT22;10992;48.170;8.596;2023-03-23T08:29:40;13.90;99.90
21662;DHT22;10992;48.170;8.596;2023-03-23T08:32:06;14.10;99.90
21662;DHT22;10992;48.170;8.596;2023-03-23T08:34:44;14.40;99.90
21662;DHT22;10992;48.170;8.596;2023-03-23T08:37:28;14.60;99.90
21662;DHT22;10992;48.170;8.596;2023-03-23T08:40:14;14.20;99.90
21662;DHT22;10992;48.170;8.596;2023-03-23T08:42:58;14.10;99.90
21662;DHT22;10992;48.170;8.596;2023-03-23T08:45:37;14.10;99.90
21662;DHT22;10992;48.170;8.596;2023-03-23T08:48:10;14.20;99.90
21662;DHT22;10992;48.170;8.596;2023-03-23T08:50:51;14.60;99.90
21662;DHT22;10992;48.170;8.596;2023-03-23T08:53:45;15.00;99.90
21662;DHT22;10992;48.170;8.596;2023-03-23T08:56:29;15.20;99.90
21662;DHT22;10992;48.170;8.596;2023-03-23T08:59:04;15.40;99.90
21662;DHT22;10992;48.170;8.596;2023-03-23T09:01:48;15.40;99.90
21662;DHT22;10992;48.170;8.596;2023-03-23T09:04:40;15.30;99.90
21662;DHT22;10992;48.170;8.596;2023-03-23T09:07:20;15.60;99.90
21662;DHT22;10992;48.170;8.596;2023-03-23T09:09:46;15.60;99.90
21662;DHT22;10992;48.170;8.596;2023-03-23T09:12:12;15.20;99.90
21662;DHT22;10992;48.170;8.596;2023-03-23T09:14:39;14.90;99.90
21662;DHT22;10992;48.170;8.596;2023-03-23T09:17:05;15.00;99.90
21662;DHT22;10992;48.170;8.596;2023-03-23T09:19:34;15.20;99.90
21662;DHT22;10992;48.170;8.596;2023-03-23T09:22:01;15.50;99.90
21662;DHT22;10992;48.170;8.596;2023-03-23T09:24:27;15.80;99.90
21662;DHT22;10992;48.170;8.596;2023-03-23T09:26:53;15.60;99.90
21662;DHT22;10992;48.170;8.596;2023-03-23T09:29:19;15.50;99.90
21662;DHT22;10992;48.170;8.596;2023-03-23T09:31:46;15.70;99.90
21662;DHT22;10992;48.170;8.596;2023-03-23T09:34:13;15.80;99.90
21662;DHT22;10992;48.170;8.596;2023-03-23T09:36:42;15.70;99.90
21662;DHT22;10992;48.170;8.596;2023-03-23T09:39:08;15.60;99.90
21662;DHT22;10992;48.170;8.596;2023-03-23T09:49:44;15.00;99.90
21662;DHT22;10992;48.170;8.596;2023-03-23T09:52:15;15.00;99.90
21662;DHT22;10992;48.170;8.596;2023-03-23T09:54:50;14.80;99.90
21662;DHT22;10992;48.170;8.596;2023-03-23T09:57:26;14.70;99.90
21662;DHT22;10992;48.170;8.596;2023-03-23T10:00:03;14.40;99.90
21662;DHT22;10992;48.170;8.596;2023-03-23T10:03:00;14.30;99.90
21662;DHT22;10992;48.170;8.596;2023-03-23T10:07:56;14.20;99.90
21662;DHT22;10992;48.170;8.596;2023-03-23T10:10:52;14.10;99.90
21662;DHT22;10992;48.170;8.596;2023-03-23T10:16:27;14.20;99.90
21662;DHT22;10992;48.170;8.596;2023-03-23T10:21:24;14.10;99.90
21662;DHT22;10992;48.170;8.596;2023-03-23T10:24:00;14.10;99.90
21662;DHT22;10992;48.170;8.596;2023-03-23T10:26:54;14.10;99.90
21662;DHT22;10992;48.170;8.596;2023-03-23T10:29:39;14.10;99.90
21662;DHT22;10992;48.170;8.596;2023-03-23T10:32:18;14.00;99.90
21662;DHT22;10992;48.170;8.596;2023-03-23T10:34:56;14.10;99.90
21662;DHT22;10992;48.170;8.596;2023-03-23T10:37:32;14.10;99.90
21662;DHT22;10992;48.170;8.596;2023-03-23T10:40:03;14.10;99.90
21662;DHT22;10992;48.170;8.596;2023-03-23T10:42:36;14.40;99.90
21662;DHT22;10992;48.170;8.596;2023-03-23T10:45:21;14.80;99.90
21662;DHT22;10992;48.170;8.596;2023-03-23T10:48:11;14.90;99.90
21662;DHT22;10992;48.170;8.596;2023-03-23T10:50:38;15.00;99.90
21662;DHT22;10992;48.170;8.596;2023-03-23T10:53:25;15.00;99.90
21662;DHT22;10992;48.170;8.596;2023-03-23T10:55:53;15.10;99.90
21662;DHT22;10992;48.170;8.596;2023-03-23T10:58:32;15.30;99.90
21662;DHT22;10992;48.170;8.596;2023-03-23T11:01:01;15.20;99.90
21662;DHT22;10992;48.170;8.596;2023-03-23T11:03:43;15.20;99.90
21662;DHT22;10992;48.170;8.596;2023-03-23T11:06:17;14.90;99.90
21662;DHT22;10992;48.170;8.596;2023-03-23T11:11:31;14.90;99.90
21662;DHT22;10992;48.170;8.596;2023-03-23T11:14:00;14.80;99.90
21662;DHT22;10992;48.170;8.596;2023-03-23T11:16:31;14.80;99.90
21662;DHT22;10992;48.170;8.596;2023-03-23T11:18:59;14.70;99.90
21662;DHT22;10992;48.170;8.596;2023-03-23T11:21:26;14.60;99.90
21662;DHT22;10992;48.170;8.596;2023-03-23T11:23:56;14.70;99.90
21662;DHT22;10992;48.170;8.596;2023-03-23T11:26:32;14.70;99.90
21662;DHT22;10992;48.170;8.596;2023-03-23T11:29:08;14.60;99.90
21662;DHT22;10992;48.170;8.596;2023-03-23T11:31:47;14.70;99.90
21662;DHT22;10992;48.170;8.596;2023-03-23T11:34:44;15.00;99.90
21662;DHT22;10992;48.170;8.596;2023-03-23T11:37:32;15.10;99.90
21662;DHT22;10992;48.170;8.596;2023-03-23T11:42:46;15.60;99.90
21662;DHT22;10992;48.170;8.596;2023-03-23T11:45:21;15.90;99.90
21662;DHT22;10992;48.170;8.596;2023-03-23T11:50:54;16.10;99.90
21662;DHT22;10992;48.170;8.596;2023-03-23T11:56:13;16.00;99.90
21662;DHT22;10992;48.170;8.596;2023-03-23T11:58:42;16.00;99.90
21662;DHT22;10992;48.170;8.596;2023-03-23T12:15:22;15.30;99.90
21662;DHT22;10992;48.170;8.596;2023-03-23T12:18:09;15.10;99.90
21662;DHT22;10992;48.170;8.596;2023-03-23T12:24:01;15.10;99.90
21662;DHT22;10992;48.170;8.596;2023-03-23T12:26:45;15.10;99.90
21662;DHT22;10992;48.170;8.596;2023-03-23T12:29:26;15.10;99.90
21662;DHT22;10992;48.170;8.596;2023-03-23T12:32:19;15.10;99.90
21662;DHT22;10992;48.170;8.596;2023-03-23T12:34:52;15.20;99.90
21662;DHT22;10992;48.170;8.596;2023-03-23T12:37:40;15.30;99.90
21662;DHT22;10992;48.170;8.596;2023-03-23T12:48:12;15.50;99.90
21662;DHT22;10992;48.170;8.596;2023-03-23T12:51:13;15.40;99.90
21662;DHT22;10992;48.170;8.596;2023-03-23T12:56:23;15.10;99.90
21662;DHT22;10992;48.170;8.596;2023-03-23T12:58:56;14.90;99.90
21662;DHT22;10992;48.170;8.596;2023-03-23T13:01:27;14.90;99.90
21662;DHT22;10992;48.170;8.596;2023-03-23T13:04:02;14.80;99.90
21662;DHT22;10992;48.170;8.596;2023-03-23T13:06:44;14.80;99.90
21662;DHT22;10992;48.170;8.596;2023-03-23T13:09:16;14.90;99.90
21662;DHT22;10992;48.170;8.596;2023-03-23T13:11:44;14.90;99.90
21662;DHT22;10992;48.170;8.596;2023-03-23T13:28:02;15.60;99.90
21662;DHT22;10992;48.170;8.596;2023-03-23T13:30:29;15.60;99.90
21662;DHT22;10992;48.170;8.596;2023-03-23T13:33:06;15.50;99.90
21662;DHT22;10992;48.170;8.596;2023-03-23T13:35:36;15.40;99.90
21662;DHT22;10992;48.170;8.596;2023-03-23T13:38:25;15.40;99.90
21662;DHT22;10992;48.170;8.596;2023-03-23T13:40:52;15.40;99.90
21662;DHT22;10992;48.170;8.596;2023-03-23T13:43:45;15.50;99.90
21662;DHT22;10992;48.170;8.596;2023-03-23T13:49:03;15.40;99.90
21662;DHT22;10992;48.170;8.596;2023-03-23T13:51:51;15.30;99.90
21662;DHT22;10992;48.170;8.596;2023-03-23T13:59:56;15.30;99.90
21662;DHT22;10992;48.170;8.596;2023-03-23T14:02:40;15.30;99.90
21662;DHT22;10992;48.170;8.596;2023-03-23T14:08:09;15.20;99.90
21662;DHT22;10992;48.170;8.596;2023-03-23T14:10:49;15.20;99.90
21662;DHT22;10992;48.170;8.596;2023-03-23T14:13:31;15.10;99.90
21662;DHT22;10992;48.170;8.596;2023-03-23T14:16:13;15.10;99.90
21662;DHT22;10992;48.170;8.596;2023-03-23T14:18:42;15.00;99.90
21662;DHT22;10992;48.170;8.596;2023-03-23T14:21:21;15.20;99.90
21662;DHT22;10992;48.170;8.596;2023-03-23T14:23:47;15.20;99.90
21662;DHT22;10992;48.170;8.596;2023-03-23T14:26:19;15.30;99.90
21662;DHT22;10992;48.170;8.596;2023-03-23T14:28:50;15.20;99.90
21662;DHT22;10992;48.170;8.596;2023-03-23T14:31:22;15.20;99.90
21662;DHT22;10992;48.170;8.596;2023-03-23T14:33:49;15.20;99.90
21662;DHT22;10992;48.170;8.596;2023-03-23T14:36:35;15.20;99.90
21662;DHT22;10992;48.170;8.596;2023-03-23T14:41:37;15.00;99.90
21662;DHT22;10992;48.170;8.596;2023-03-23T14:44:07;14.90;99.90
21662;DHT22;10992;48.170;8.596;2023-03-23T14:46:34;14.80;99.90
21662;DHT22;10992;48.170;8.596;2023-03-23T14:49:04;14.80;99.90
21662;DHT22;10992;48.170;8.596;2023-03-23T14:51:31;14.70;99.90
21662;DHT22;10992;48.170;8.596;2023-03-23T14:53:59;14.70;99.90
21662;DHT22;10992;48.170;8.596;2023-03-23T14:56:36;14.60;99.90
21662;DHT22;10992;48.170;8.596;2023-03-23T14:59:04;14.60;99.90
21662;DHT22;10992;48.170;8.596;2023-03-23T15:01:33;14.60;99.90
21662;DHT22;10992;48.170;8.596;2023-03-23T15:04:02;14.40;99.90
21662;DHT22;10992;48.170;8.596;2023-03-23T15:06:33;14.40;99.90
21662;DHT22;10992;48.170;8.596;2023-03-23T15:09:02;14.40;99.90
21662;DHT22;10992;48.170;8.596;2023-03-23T15:11:32;14.40;99.90
21662;DHT22;10992;48.170;8.596;2023-03-23T15:14:00;14.30;99.90
21662;DHT22;10992;48.170;8.596;2023-03-23T15:16:33;14.40;99.90
21662;DHT22;10992;48.170;8.596;2023-03-23T15:19:06;14.30;99.90
21662;DHT22;10992;48.170;8.596;2023-03-23T15:21:50;14.30;99.90
21662;DHT22;10992;48.170;8.596;2023-03-23T15:24:34;14.30;99.90
21662;DHT22;10992;48.170;8.596;2023-03-23T15:27:17;14.30;99.90
21662;DHT22;10992;48.170;8.596;2023-03-23T15:29:48;14.30;99.90
21662;DHT22;10992;48.170;8.596;2023-03-23T15:32:21;14.20;99.90
21662;DHT22;10992;48.170;8.596;2023-03-23T15:34:47;14.20;99.90
21662;DHT22;10992;48.170;8.596;2023-03-23T15:37:24;14.20;99.90
21662;DHT22;10992;48.170;8.596;2023-03-23T15:39:51;14.20;99.90
21662;DHT22;10992;48.170;8.596;2023-03-23T15:42:33;14.20;99.90
21662;DHT22;10992;48.170;8.596;2023-03-23T15:47:48;14.30;99.90
21662;DHT22;10992;48.170;8.596;2023-03-23T15:52:48;14.20;99.90
21662;DHT22;10992;48.170;8.596;2023-03-23T15:55:25;14.20;99.90
21662;DHT22;10992;48.170;8.596;2023-03-23T15:57:56;14.10;99.90
21662;DHT22;10992;48.170;8.596;2023-03-23T16:00:26;14.10;99.90
21662;DHT22;10992;48.170;8.596;2023-03-23T16:03:00;14.10;99.90
21662;DHT22;10992;48.170;8.596;2023-03-23T16:05:30;14.00;99.90
21662;DHT22;10992;48.170;8.596;2023-03-23T16:07:59;13.90;99.90
21662;DHT22;10992;48.170;8.596;2023-03-23T16:10:27;13.90;99.90
21662;DHT22;10992;48.170;8.596;2023-03-23T16:12:55;13.90;99.90
21662;DHT22;10992;48.170;8.596;2023-03-23T16:15:23;13.80;99.90
21662;DHT22;10992;48.170;8.596;2023-03-23T16:17:50;13.80;99.90
21662;DHT22;10992;48.170;8.596;2023-03-23T16:20:20;13.80;99.90
21662;DHT22;10992;48.170;8.596;2023-03-23T16:22:48;13.80;99.90
21662;DHT22;10992;48.170;8.596;2023-03-23T16:25:17;13.80;99.90
21662;DHT22;10992;48.170;8.596;2023-03-23T16:27:45;13.70;99.90
21662;DHT22;10992;48.170;8.596;2023-03-23T16:30:24;13.70;99.90
21662;DHT22;10992;48.170;8.596;2023-03-23T16:32:52;13.70;99.90
21662;DHT22;10992;48.170;8.596;2023-03-23T16:35:22;13.70;99.90
21662;DHT22;10992;48.170;8.596;2023-03-23T16:37:52;13.60;99.90
21662;DHT22;10992;48.170;8.596;2023-03-23T16:40:35;13.60;99.90
21662;DHT22;10992;48.170;8.596;2023-03-23T16:43:04;13.50;99.90
21662;DHT22;10992;48.170;8.596;2023-03-23T16:45:37;13.50;99.90
21662;DHT22;10992;48.170;8.596;2023-03-23T16:48:08;13.50;99.90
21662;DHT22;10992;48.170;8.596;2023-03-23T16:50:36;13.50;99.90
21662;DHT22;10992;48.170;8.596;2023-03-23T16:53:05;13.50;99.90
21662;DHT22;10992;48.170;8.596;2023-03-23T16:55:35;13.40;99.90
21662;DHT22;10992;48.170;8.596;2023-03-23T16:58:03;13.40;99.90
21662;DHT22;10992;48.170;8.596;2023-03-23T17:00:48;13.40;99.90
21662;DHT22;10992;48.170;8.596;2023-03-23T17:03:20;13.40;99.90
21662;DHT22;10992;48.170;8.596;2023-03-23T17:05:49;13.30;99.90
21662;DHT22;10992;48.170;8.596;2023-03-23T17:08:18;13.30;99.90
21662;DHT22;10992;48.170;8.596;2023-03-23T17:10:47;13.20;99.90
21662;DHT22;10992;48.170;8.596;2023-03-23T17:13:14;13.20;99.90
21662;DHT22;10992;48.170;8.596;2023-03-23T17:15:42;13.10;99.90
21662;DHT22;10992;48.170;8.596;2023-03-23T17:18:13;13.10;99.90
21662;DHT22;10992;48.170;8.596;2023-03-23T17:20:41;13.00;99.90
21662;DHT22;10992;48.170;8.596;2023-03-23T17:23:09;13.00;99.90
21662;DHT22;10992;48.170;8.596;2023-03-23T17:25:36;12.90;99.90
21662;DHT22;10992;48.170;8.596;2023-03-23T17:28:04;12.90;99.90
21662;DHT22;10992;48.170;8.596;2023-03-23T17:30:34;12.80;99.90
21662;DHT22;10992;48.170;8.596;2023-03-23T17:33:02;12.80;99.90
21662;DHT22;10992;48.170;8.596;2023-03-23T17:35:30;12.70;99.90
21662;DHT22;10992;48.170;8.596;2023-03-23T17:37:57;12.70;99.90
21662;DHT22;10992;48.170;8.596;2023-03-23T17:40:25;12.60;99.90
21662;DHT22;10992;48.170;8.596;2023-03-23T17:42:52;12.60;99.90
21662;DHT22;10992;48.170;8.596;2023-03-23T17:45:19;12.60;99.90
21662;DHT22;10992;48.170;8.596;2023-03-23T17:47:46;12.50;99.90
21662;DHT22;10992;48.170;8.596;2023-03-23T17:50:13;12.50;99.90
21662;DHT22;10992;48.170;8.596;2023-03-23T17:52:41;12.50;99.90
21662;DHT22;10992;48.170;8.596;2023-03-23T17:55:10;12.50;99.90